Time;durP1;ratioP1;P1;durP2;ratioP2;P2;SDS_P1;SDS_P2;PMS_P1;PMS_P2;Temp;Humidity;BMP_temperature;BMP_pressure;BME280_temperature;BME280_humidity;BME280_pressure;Samples;Min_cycle;Max_cycle;Signal;HPM_P1;HPM_P2
2021/12/06 00:00:32;;;;;;;11.60;6.63;;;4.80;99.90;;;;;;5050069;28;20997;-73
2021/12/06 00:03:01;;;;;;;12.00;7.53;;;4.80;99.90;;;;;;5050421;28;20220;-73
2021/12/06 00:05:27;;;;;;;8.57;6.60;;;4.70;99.90;;;;;;5050544;28;20466;-73
2021/12/06 00:07:53;;;;;;;8.90;6.77;;;4.70;99.90;;;;;;5051177;28;20470;-72
2021/12/06 00:10:19;;;;;;;7.63;6.10;;;4.70;99.90;;;;;;5032820;28;20577;-73
2021/12/06 00:12:45;;;;;;;8.17;6.20;;;4.70;99.90;;;;;;5050097;28;20235;-71
2021/12/06 00:15:13;;;;;;;13.47;6.00;;;4.70;99.90;;;;;;5046913;28;20462;-74
2021/12/06 00:17:39;;;;;;;22.70;10.63;;;4.70;99.90;;;;;;5049718;28;20715;-73
2021/12/06 00:20:08;;;;;;;17.83;9.07;;;4.70;99.90;;;;;;5050207;28;20458;-72
2021/12/06 00:22:34;;;;;;;13.20;7.57;;;4.80;99.90;;;;;;5032615;28;20586;-73
2021/12/06 00:25:00;;;;;;;10.80;6.80;;;4.70;99.90;;;;;;5033320;28;20470;-72
2021/12/06 00:27:27;;;;;;;100.53;30.03;;;4.70;99.90;;;;;;5030902;28;20466;-73
2021/12/06 00:29:53;;;;;;;123.00;36.40;;;4.70;99.90;;;;;;5032913;28;20684;-72
2021/12/06 00:32:20;;;;;;;56.87;24.97;;;4.70;99.90;;;;;;5032320;28;20458;-73
2021/12/06 00:34:45;;;;;;;55.00;19.07;;;4.70;99.90;;;;;;5049627;28;20894;-71
2021/12/06 00:39:41;;;;;;;33.70;16.30;;;4.70;99.90;;;;;;5047783;28;20362;-73
2021/12/06 00:42:07;;;;;;;24.70;11.63;;;4.70;99.90;;;;;;5049237;28;20541;-72
2021/12/06 00:44:33;;;;;;;15.50;9.40;;;4.70;99.90;;;;;;5031718;28;20484;-73
2021/12/06 00:46:58;;;;;;;17.87;10.47;;;4.70;99.90;;;;;;5032190;28;20220;-73
2021/12/06 00:49:24;;;;;;;16.63;10.07;;;4.70;99.90;;;;;;5048841;28;20252;-73
2021/12/06 00:51:50;;;;;;;14.33;8.87;;;4.70;99.90;;;;;;5031824;28;20215;-73
2021/12/06 00:54:16;;;;;;;15.47;9.30;;;4.70;99.90;;;;;;5049575;28;20293;-71
2021/12/06 00:56:42;;;;;;;8.37;6.17;;;4.70;99.90;;;;;;5031440;28;20362;-73
2021/12/06 00:59:07;;;;;;;11.90;7.20;;;4.70;99.90;;;;;;5030863;28;20554;-73
2021/12/06 01:01:34;;;;;;;10.50;7.27;;;4.70;99.90;;;;;;5048083;28;20737;-73
2021/12/06 01:04:01;;;;;;;12.03;6.60;;;4.70;99.90;;;;;;5049331;28;20238;-73
2021/12/06 01:06:27;;;;;;;11.27;6.80;;;4.70;99.90;;;;;;5032035;28;20504;-73
2021/12/06 01:08:52;;;;;;;17.80;8.73;;;4.70;99.90;;;;;;5031447;28;20454;-72
2021/12/06 01:11:19;;;;;;;17.27;8.93;;;4.70;99.90;;;;;;5032323;28;20223;-73
2021/12/06 01:13:46;;;;;;;14.57;8.10;;;4.70;99.90;;;;;;5048504;28;20458;-71
2021/12/06 01:16:13;;;;;;;11.40;7.10;;;4.70;99.90;;;;;;5031655;28;20458;-72
2021/12/06 01:18:38;;;;;;;26.97;12.77;;;4.70;99.90;;;;;;5031922;28;20449;-71
2021/12/06 01:21:19;;;;;;;37.57;14.17;;;4.70;99.90;;;;;;5031562;28;20467;-75
2021/12/06 01:24:03;;;;;;;25.43;12.77;;;4.70;99.90;;;;;;5047172;28;20537;-73
2021/12/06 01:26:56;;;;;;;18.23;9.77;;;4.60;99.90;;;;;;5047926;28;20545;-73
2021/12/06 01:29:45;;;;;;;11.80;8.03;;;4.60;99.90;;;;;;5045259;28;21012;-71
2021/12/06 01:32:25;;;;;;;13.37;7.40;;;4.60;99.90;;;;;;5048092;28;20878;-72
2021/12/06 01:40:08;;;;;;;25.60;11.40;;;4.60;99.90;;;;;;5047606;28;20970;-73
2021/12/06 01:42:34;;;;;;;29.57;13.47;;;4.60;99.90;;;;;;5030424;28;20453;-71
2021/12/06 01:45:01;;;;;;;26.10;11.00;;;4.60;99.90;;;;;;5028277;28;21246;-73
2021/12/06 01:47:32;;;;;;;25.77;11.60;;;4.60;99.90;;;;;;5060794;28;20548;-73
2021/12/06 01:50:04;;;;;;;29.93;13.40;;;4.60;99.90;;;;;;5048610;28;20470;-72
2021/12/06 01:52:55;;;;;;;22.20;11.20;;;4.60;99.90;;;;;;5031125;28;20872;-72
2021/12/06 01:55:28;;;;;;;14.63;9.37;;;4.60;99.90;;;;;;5010661;28;20452;-72
2021/12/06 01:57:55;;;;;;;16.40;10.73;;;4.50;99.90;;;;;;5047869;28;20538;-73
2021/12/06 02:00:29;;;;;;;19.00;10.00;;;4.50;99.90;;;;;;5047624;28;20453;-72
2021/12/06 02:03:00;;;;;;;17.40;9.53;;;4.50;99.90;;;;;;5029860;28;20476;-73
2021/12/06 02:05:33;;;;;;;11.97;7.43;;;4.50;99.90;;;;;;5047485;28;20473;-74
2021/12/06 02:07:59;;;;;;;12.43;8.37;;;4.50;99.90;;;;;;5047743;28;20516;-72
2021/12/06 02:10:25;;;;;;;12.13;7.23;;;4.50;99.90;;;;;;5029672;28;20600;-73
2021/12/06 02:12:53;;;;;;;11.13;6.63;;;4.50;99.90;;;;;;5027770;28;20856;-73
2021/12/06 02:18:02;;;;;;;14.77;9.97;;;4.50;99.90;;;;;;5047729;28;20508;-73
2021/12/06 02:20:29;;;;;;;13.00;9.27;;;4.50;99.90;;;;;;5047315;28;20814;-73
2021/12/06 02:22:56;;;;;;;12.27;8.00;;;4.50;99.90;;;;;;5027749;28;20828;-74
2021/12/06 02:25:22;;;;;;;12.73;7.77;;;4.50;99.90;;;;;;5042909;28;20450;-73
2021/12/06 02:27:51;;;;;;;13.27;8.50;;;4.50;99.90;;;;;;5044502;28;20498;-74
2021/12/06 02:30:20;;;;;;;12.10;7.93;;;4.50;99.90;;;;;;5031080;28;20462;-73
2021/12/06 02:32:47;;;;;;;12.03;8.77;;;4.50;99.90;;;;;;5047461;28;20460;-72
2021/12/06 02:35:17;;;;;;;13.50;6.87;;;4.50;99.90;;;;;;5043962;28;20466;-73
2021/12/06 02:37:44;;;;;;;12.77;7.23;;;4.40;99.90;;;;;;5048752;28;20534;-74
2021/12/06 02:40:18;;;;;;;8.07;6.43;;;4.50;99.90;;;;;;5047884;28;20458;-73
2021/12/06 02:42:46;;;;;;;8.30;6.47;;;4.40;99.90;;;;;;5030979;28;20450;-72
2021/12/06 02:45:14;;;;;;;8.30;5.83;;;4.40;99.90;;;;;;5043386;28;20486;-73
2021/12/06 02:47:41;;;;;;;10.50;6.93;;;4.50;99.90;;;;;;5030442;28;20463;-73
2021/12/06 02:50:09;;;;;;;8.20;6.03;;;4.40;99.90;;;;;;5047253;28;20454;-72
2021/12/06 02:52:37;;;;;;;10.70;7.07;;;4.40;99.90;;;;;;5046357;28;20446;-75
2021/12/06 02:55:20;;;;;;;7.80;6.57;;;4.50;99.90;;;;;;5030306;28;20458;-72
2021/12/06 02:57:47;;;;;;;10.47;7.53;;;4.40;99.90;;;;;;5030321;28;20457;-70
2021/12/06 03:00:13;;;;;;;11.17;7.10;;;4.40;99.90;;;;;;5047461;28;20477;-73
2021/12/06 03:02:39;;;;;;;11.80;7.40;;;4.40;99.90;;;;;;5028803;28;20473;-72
2021/12/06 03:05:05;;;;;;;12.57;7.70;;;4.50;99.90;;;;;;5028405;28;20495;-73
2021/12/06 03:07:36;;;;;;;12.47;7.03;;;4.40;99.90;;;;;;5046269;28;20274;-72
2021/12/06 03:10:04;;;;;;;11.80;7.07;;;4.40;99.90;;;;;;5047349;28;20462;-72
2021/12/06 03:12:30;;;;;;;13.47;7.13;;;4.40;99.90;;;;;;5044820;28;20497;-73
2021/12/06 03:14:58;;;;;;;14.53;8.07;;;4.40;99.90;;;;;;5046984;28;20474;-72
2021/12/06 03:17:28;;;;;;;9.73;6.60;;;4.40;99.90;;;;;;5046798;28;20227;-72
2021/12/06 03:19:56;;;;;;;10.47;7.13;;;4.40;99.90;;;;;;5046412;28;20459;-73
2021/12/06 03:22:23;;;;;;;9.40;6.70;;;4.30;99.90;;;;;;5028995;28;20568;-71
2021/12/06 03:24:52;;;;;;;8.30;6.80;;;4.40;99.90;;;;;;5046772;28;20468;-72
2021/12/06 03:27:19;;;;;;;10.37;7.53;;;4.40;99.90;;;;;;5048114;28;20469;-72
2021/12/06 03:29:46;;;;;;;11.43;6.80;;;4.40;99.90;;;;;;5034851;28;20469;-72
2021/12/06 03:32:12;;;;;;;11.40;7.67;;;4.40;99.90;;;;;;5050940;28;20445;-72
2021/12/06 03:34:38;;;;;;;11.80;6.83;;;4.40;99.90;;;;;;5050487;28;20910;-71
2021/12/06 03:37:08;;;;;;;8.27;6.30;;;4.30;99.90;;;;;;5050727;28;20462;-73
2021/12/06 03:39:40;;;;;;;10.67;8.20;;;4.30;99.90;;;;;;5034161;28;20465;-74
2021/12/06 03:42:12;;;;;;;11.23;7.90;;;4.30;99.90;;;;;;5033840;28;20462;-72
2021/12/06 03:44:39;;;;;;;11.03;7.20;;;4.40;99.90;;;;;;5050925;28;20442;-73
2021/12/06 03:47:11;;;;;;;12.10;7.47;;;4.30;99.90;;;;;;5050992;28;21053;-75
2021/12/06 03:49:37;;;;;;;10.07;6.80;;;4.30;99.90;;;;;;5033907;28;20978;-71
2021/12/06 03:52:04;;;;;;;9.07;7.00;;;4.30;99.90;;;;;;5049737;28;20950;-72
2021/12/06 03:54:30;;;;;;;9.97;6.73;;;4.30;99.90;;;;;;5049521;28;20447;-73
2021/12/06 03:56:57;;;;;;;10.60;7.03;;;4.30;99.90;;;;;;5030632;28;20451;-71
2021/12/06 03:59:24;;;;;;;9.60;6.90;;;4.30;99.90;;;;;;5017860;28;20443;-72
2021/12/06 04:01:53;;;;;;;13.03;7.70;;;4.20;99.90;;;;;;5046427;28;20870;-72
2021/12/06 04:04:23;;;;;;;11.00;7.67;;;4.30;99.90;;;;;;5032389;28;20639;-72
2021/12/06 04:06:50;;;;;;;11.63;6.93;;;4.30;99.90;;;;;;5049910;28;20459;-73
2021/12/06 04:09:17;;;;;;;11.80;7.33;;;4.30;99.90;;;;;;5032001;28;20465;-73
2021/12/06 04:11:44;;;;;;;11.43;7.27;;;4.20;99.90;;;;;;5030124;28;20450;-72
2021/12/06 04:14:11;;;;;;;9.27;6.90;;;4.20;99.90;;;;;;5063244;28;20446;-73
2021/12/06 04:16:37;;;;;;;12.10;6.70;;;4.20;99.90;;;;;;5046948;28;20542;-73
2021/12/06 04:19:05;;;;;;;13.20;7.50;;;4.20;99.90;;;;;;5047622;28;20450;-73
2021/12/06 04:21:32;;;;;;;16.30;7.53;;;4.20;99.90;;;;;;5030394;28;20459;-73
2021/12/06 04:23:58;;;;;;;11.57;6.43;;;4.20;99.90;;;;;;5047892;28;20451;-71
2021/12/06 04:26:24;;;;;;;13.67;7.07;;;4.20;99.90;;;;;;5048437;28;20494;-71
2021/12/06 04:28:59;;;;;;;11.37;6.47;;;4.20;99.90;;;;;;5031321;28;20470;-72
2021/12/06 04:31:31;;;;;;;9.80;6.80;;;4.20;99.90;;;;;;5044025;28;20446;-72
2021/12/06 04:33:59;;;;;;;11.83;6.73;;;4.20;99.90;;;;;;5029433;28;20554;-73
2021/12/06 04:36:25;;;;;;;11.90;7.00;;;4.20;99.90;;;;;;5029969;28;20665;-73
2021/12/06 04:38:52;;;;;;;11.90;7.80;;;4.10;99.90;;;;;;5046952;28;20447;-72
2021/12/06 04:41:18;;;;;;;8.73;6.67;;;4.10;99.90;;;;;;5044045;28;21107;-73
2021/12/06 04:43:43;;;;;;;8.57;6.33;;;4.10;99.90;;;;;;5027254;28;20477;-72
2021/12/06 04:46:09;;;;;;;12.57;6.77;;;4.10;99.90;;;;;;5026984;28;20459;-72
2021/12/06 04:48:35;;;;;;;12.00;7.60;;;4.10;99.90;;;;;;5045898;28;20228;-72
2021/12/06 04:51:02;;;;;;;11.57;8.10;;;4.00;99.90;;;;;;5035463;28;20455;-73
2021/12/06 04:53:36;;;;;;;11.03;7.10;;;4.00;99.90;;;;;;5047403;28;20783;-74
2021/12/06 04:56:15;;;;;;;11.97;7.00;;;4.10;99.90;;;;;;5050291;28;20466;-73
2021/12/06 04:59:11;;;;;;;14.17;7.20;;;4.10;99.90;;;;;;5050255;28;20481;-73
2021/12/06 05:01:38;;;;;;;12.13;8.23;;;4.00;99.90;;;;;;5028129;28;20814;-72
2021/12/06 05:04:11;;;;;;;13.17;7.87;;;4.00;99.90;;;;;;5033469;28;20546;-72
2021/12/06 05:06:41;;;;;;;10.83;7.30;;;4.00;99.90;;;;;;5033310;28;20454;-72
2021/12/06 05:09:16;;;;;;;9.97;7.07;;;4.00;99.90;;;;;;5031810;28;20482;-73
2021/12/06 05:11:44;;;;;;;11.27;6.73;;;4.00;99.90;;;;;;5047881;28;20458;-74
2021/12/06 05:14:10;;;;;;;11.13;6.30;;;4.00;99.90;;;;;;5031513;28;20469;-71
2021/12/06 05:16:36;;;;;;;12.77;7.30;;;4.00;99.90;;;;;;5046144;28;20458;-72
2021/12/06 05:19:04;;;;;;;10.93;7.00;;;4.00;99.90;;;;;;5048845;28;20454;-72
2021/12/06 05:21:31;;;;;;;12.97;7.43;;;4.00;99.90;;;;;;5048078;28;20487;-73
2021/12/06 05:23:57;;;;;;;14.90;8.20;;;4.00;99.90;;;;;;5046235;28;20445;-71
2021/12/06 05:26:23;;;;;;;9.17;7.27;;;3.90;99.90;;;;;;5036863;28;20462;-72
2021/12/06 05:28:51;;;;;;;11.17;7.43;;;4.00;99.90;;;;;;5032082;28;20219;-72
2021/12/06 05:31:20;;;;;;;12.20;7.50;;;3.90;99.90;;;;;;5031984;28;20459;-72
2021/12/06 05:33:51;;;;;;;11.07;6.17;;;3.90;99.90;;;;;;5047516;28;20466;-72
2021/12/06 05:36:17;;;;;;;11.53;6.60;;;3.90;99.90;;;;;;5047171;28;20978;-72
2021/12/06 05:38:43;;;;;;;12.30;7.23;;;3.80;99.90;;;;;;5048196;28;20549;-73
2021/12/06 05:41:08;;;;;;;13.67;7.17;;;3.90;99.90;;;;;;5032029;28;20223;-73
2021/12/06 05:43:34;;;;;;;11.33;6.93;;;3.90;99.90;;;;;;5042202;28;20553;-72
2021/12/06 05:46:01;;;;;;;9.47;7.07;;;3.80;99.90;;;;;;5066598;28;20227;-71
2021/12/06 05:48:27;;;;;;;14.17;7.80;;;3.80;99.90;;;;;;5047540;28;20459;-72
2021/12/06 05:50:53;;;;;;;10.30;6.23;;;3.70;99.90;;;;;;5030205;28;20453;-70
2021/12/06 05:53:19;;;;;;;9.50;6.43;;;3.70;99.90;;;;;;5049088;28;20469;-72
2021/12/06 05:55:46;;;;;;;13.47;6.80;;;3.70;99.90;;;;;;5049249;28;20519;-73
2021/12/06 05:58:13;;;;;;;11.63;6.60;;;3.70;99.90;;;;;;5046947;28;20490;-74
2021/12/06 06:00:39;;;;;;;11.87;7.23;;;3.70;99.90;;;;;;5031175;28;20520;-72
2021/12/06 06:03:06;;;;;;;10.77;7.03;;;3.70;99.90;;;;;;5047832;28;20462;-74
2021/12/06 06:05:33;;;;;;;12.77;6.20;;;3.70;99.90;;;;;;5039519;28;20243;-73
2021/12/06 06:07:59;;;;;;;11.10;6.50;;;3.70;99.90;;;;;;5030782;28;20877;-71
2021/12/06 06:10:25;;;;;;;12.23;6.73;;;3.70;99.90;;;;;;5047388;28;20493;-72
2021/12/06 06:12:52;;;;;;;11.70;7.70;;;3.70;99.90;;;;;;5047927;28;20450;-73
2021/12/06 06:15:17;;;;;;;12.57;7.13;;;3.70;99.90;;;;;;5047569;28;20462;-72
2021/12/06 06:17:44;;;;;;;10.70;6.87;;;3.70;99.90;;;;;;5045899;28;20457;-72
2021/12/06 06:20:20;;;;;;;10.90;7.50;;;3.60;99.90;;;;;;5046288;28;20334;-72
2021/12/06 06:22:46;;;;;;;9.00;6.27;;;3.60;99.90;;;;;;5047401;28;20472;-71
2021/12/06 06:25:12;;;;;;;13.97;8.23;;;3.60;99.90;;;;;;5038951;28;20514;-74
2021/12/06 06:27:38;;;;;;;13.43;8.20;;;3.60;99.90;;;;;;5046864;28;20470;-72
2021/12/06 06:30:04;;;;;;;11.43;6.40;;;3.60;99.90;;;;;;5044107;28;20545;-72
2021/12/06 06:32:30;;;;;;;14.37;8.40;;;3.60;99.90;;;;;;5045195;28;20235;-72
2021/12/06 06:34:56;;;;;;;12.20;8.47;;;3.60;99.90;;;;;;5030324;28;20462;-73
2021/12/06 06:37:22;;;;;;;9.93;7.03;;;3.60;99.90;;;;;;5049545;28;20696;-74
2021/12/06 06:39:48;;;;;;;9.10;6.57;;;3.60;99.90;;;;;;5049212;28;20211;-73
2021/12/06 06:42:13;;;;;;;11.30;6.83;;;3.60;99.90;;;;;;5031797;28;21023;-72
2021/12/06 06:44:39;;;;;;;11.30;7.17;;;3.60;99.90;;;;;;5047742;28;20455;-72
2021/12/06 06:47:05;;;;;;;13.80;7.80;;;3.60;99.90;;;;;;5031699;28;20222;-74
2021/12/06 06:49:31;;;;;;;15.87;6.97;;;3.60;99.90;;;;;;5047770;28;20216;-72
2021/12/06 06:51:59;;;;;;;10.10;6.63;;;3.60;99.90;;;;;;5048728;28;20695;-73
2021/12/06 06:54:24;;;;;;;10.50;7.20;;;3.60;99.90;;;;;;5048192;28;20446;-73
2021/12/06 06:56:50;;;;;;;11.10;7.57;;;3.50;99.90;;;;;;5031887;28;20453;-73
2021/12/06 06:59:16;;;;;;;13.67;7.87;;;3.60;99.90;;;;;;5028810;28;20216;-73
2021/12/06 07:01:41;;;;;;;12.53;7.43;;;3.60;99.90;;;;;;5032662;28;20341;-72
2021/12/06 07:04:08;;;;;;;11.20;7.37;;;3.60;99.90;;;;;;5035591;28;20223;-72
2021/12/06 07:06:34;;;;;;;14.10;7.20;;;3.60;99.90;;;;;;5034069;28;20648;-72
2021/12/06 07:08:59;;;;;;;10.90;6.93;;;3.60;99.90;;;;;;5052183;28;20470;-73
2021/12/06 07:11:26;;;;;;;11.73;8.60;;;3.50;99.90;;;;;;5034075;28;20323;-73
2021/12/06 07:13:52;;;;;;;8.80;6.33;;;3.50;99.90;;;;;;5052437;28;20215;-73
2021/12/06 07:16:18;;;;;;;11.93;6.50;;;3.50;99.90;;;;;;5034965;28;20488;-72
2021/12/06 07:18:45;;;;;;;12.30;7.87;;;3.50;99.90;;;;;;5052845;28;20246;-69
2021/12/06 07:21:12;;;;;;;11.13;5.80;;;3.50;99.90;;;;;;5052587;28;20462;-72
2021/12/06 07:23:38;;;;;;;11.30;7.77;;;3.60;99.90;;;;;;5052783;28;20447;-72
2021/12/06 07:26:13;;;;;;;13.10;7.33;;;3.60;99.90;;;;;;5053424;28;20454;-72
2021/12/06 07:28:41;;;;;;;14.63;8.83;;;3.60;99.90;;;;;;5051889;28;20453;-71
2021/12/06 07:31:09;;;;;;;12.90;8.90;;;3.60;99.90;;;;;;5051084;28;20453;-75
2021/12/06 07:33:35;;;;;;;16.17;9.80;;;3.60;99.90;;;;;;5051133;28;20835;-72
2021/12/06 07:36:01;;;;;;;11.97;8.83;;;3.60;99.90;;;;;;5053028;28;20488;-72
2021/12/06 07:38:27;;;;;;;14.03;9.60;;;3.60;99.90;;;;;;5051596;28;20462;-72
2021/12/06 07:40:53;;;;;;;17.13;10.40;;;3.60;99.90;;;;;;5052326;28;20254;-72
2021/12/06 07:43:19;;;;;;;18.07;11.03;;;3.60;99.90;;;;;;5034630;28;20458;-72
2021/12/06 07:45:46;;;;;;;13.73;8.03;;;3.60;99.90;;;;;;5051669;28;20470;-70
2021/12/06 07:48:13;;;;;;;12.37;7.27;;;3.50;99.90;;;;;;5051095;28;20497;-73
2021/12/06 07:50:39;;;;;;;10.77;8.13;;;3.50;99.90;;;;;;5051049;28;20465;-72
2021/12/06 07:53:06;;;;;;;12.83;7.90;;;3.50;99.90;;;;;;5051584;28;20462;-73
2021/12/06 07:55:34;;;;;;;14.00;7.60;;;3.50;99.90;;;;;;5050909;28;20458;-72
2021/12/06 07:58:04;;;;;;;15.20;9.00;;;3.50;99.90;;;;;;5052135;28;20462;-73
2021/12/06 08:00:31;;;;;;;16.07;10.50;;;3.50;99.90;;;;;;5050861;28;20458;-73
2021/12/06 08:02:58;;;;;;;13.37;6.93;;;3.50;99.90;;;;;;5031380;28;20979;-72
2021/12/06 08:05:32;;;;;;;9.67;7.10;;;3.50;99.90;;;;;;5047663;28;20510;-73
2021/12/06 08:08:11;;;;;;;11.30;6.37;;;3.50;99.90;;;;;;5051982;28;20454;-74
2021/12/06 08:10:44;;;;;;;14.03;7.07;;;3.50;99.90;;;;;;5050981;28;20489;-73
2021/12/06 08:13:12;;;;;;;12.03;7.90;;;3.50;99.90;;;;;;5047679;28;20450;-73
2021/12/06 08:15:38;;;;;;;9.60;6.73;;;3.50;99.90;;;;;;5036451;28;20461;-72
2021/12/06 08:18:05;;;;;;;19.10;9.10;;;3.50;99.90;;;;;;5051814;28;20469;-73
2021/12/06 08:20:32;;;;;;;20.87;11.60;;;3.50;99.90;;;;;;5050180;28;20589;-74
2021/12/06 08:22:58;;;;;;;16.43;9.03;;;3.50;99.90;;;;;;5050120;28;20454;-73
2021/12/06 08:25:24;;;;;;;13.23;8.43;;;3.50;99.90;;;;;;5048692;28;20462;-73
2021/12/06 08:27:50;;;;;;;16.30;8.83;;;3.50;99.90;;;;;;5030666;28;20278;-73
2021/12/06 08:30:19;;;;;;;11.53;7.77;;;3.50;99.90;;;;;;5030547;28;20244;-73
2021/12/06 08:32:47;;;;;;;14.00;7.20;;;3.40;99.90;;;;;;5045962;28;20455;-71
2021/12/06 08:35:12;;;;;;;14.20;8.67;;;3.50;99.90;;;;;;5032460;28;20813;-73
2021/12/06 08:37:38;;;;;;;12.27;7.70;;;3.50;99.90;;;;;;5049825;28;20466;-72
2021/12/06 08:40:05;;;;;;;10.00;7.30;;;3.50;99.90;;;;;;5051922;28;20224;-73
2021/12/06 08:42:31;;;;;;;10.73;6.70;;;3.50;99.90;;;;;;5050463;28;20459;-72
2021/12/06 08:44:57;;;;;;;11.73;7.40;;;3.50;99.90;;;;;;5031848;28;20462;-73
2021/12/06 08:47:24;;;;;;;12.97;7.90;;;3.50;99.90;;;;;;5048809;28;20467;-72
2021/12/06 08:49:51;;;;;;;12.43;7.07;;;3.60;99.90;;;;;;5046960;28;20208;-70
2021/12/06 08:52:18;;;;;;;13.90;7.37;;;3.60;99.90;;;;;;5047784;28;20946;-72
2021/12/06 08:54:44;;;;;;;17.67;9.97;;;3.70;99.90;;;;;;5050303;28;20454;-71
2021/12/06 08:57:10;;;;;;;22.70;13.80;;;3.70;99.90;;;;;;5047577;28;20450;-72
2021/12/06 08:59:36;;;;;;;45.47;23.33;;;3.70;99.90;;;;;;5033042;28;20827;-71
2021/12/06 09:02:03;;;;;;;33.83;19.33;;;3.70;99.90;;;;;;5051412;28;20219;-71
2021/12/06 09:04:34;;;;;;;19.17;11.20;;;3.80;99.90;;;;;;5048650;28;20455;-72
2021/12/06 09:07:00;;;;;;;17.80;10.83;;;3.80;99.90;;;;;;5030537;28;20520;-72
2021/12/06 09:09:29;;;;;;;14.83;9.10;;;3.80;99.90;;;;;;5049718;28;20858;-72
2021/12/06 09:11:56;;;;;;;14.67;9.33;;;3.90;99.90;;;;;;5048856;28;20455;-72
2021/12/06 09:14:23;;;;;;;18.47;9.23;;;4.00;99.90;;;;;;5049967;28;20454;-71
2021/12/06 09:16:49;;;;;;;19.33;10.60;;;4.00;99.90;;;;;;5047271;28;20466;-72
2021/12/06 09:19:16;;;;;;;14.53;8.90;;;4.00;99.90;;;;;;5047479;28;20458;-75
2021/12/06 09:21:43;;;;;;;14.53;9.90;;;4.00;99.90;;;;;;5063830;28;20220;-73
2021/12/06 09:24:15;;;;;;;18.63;10.90;;;4.10;99.90;;;;;;5048645;28;20525;-73
2021/12/06 09:26:42;;;;;;;24.10;12.80;;;4.10;99.90;;;;;;5049156;28;20454;-72
2021/12/06 09:29:07;;;;;;;26.37;17.23;;;4.10;99.90;;;;;;5047763;28;20478;-72
2021/12/06 09:31:34;;;;;;;29.43;16.60;;;4.20;99.90;;;;;;5042534;28;20471;-72
2021/12/06 09:34:00;;;;;;;21.90;13.47;;;4.20;99.90;;;;;;5034585;28;20963;-73
2021/12/06 09:36:26;;;;;;;46.80;26.83;;;4.30;99.90;;;;;;5045935;28;20231;-72
2021/12/06 09:38:53;;;;;;;36.17;21.60;;;4.30;99.90;;;;;;5049058;28;20439;-72
2021/12/06 09:41:23;;;;;;;31.20;18.00;;;4.40;99.90;;;;;;5046302;28;20451;-72
2021/12/06 09:43:52;;;;;;;25.67;15.20;;;4.50;99.90;;;;;;5048628;28;20454;-72
2021/12/06 09:46:18;;;;;;;19.03;12.13;;;4.60;99.90;;;;;;5047647;28;20451;-72
2021/12/06 09:48:46;;;;;;;20.17;11.67;;;4.60;99.90;;;;;;5049927;28;20524;-73
2021/12/06 09:51:17;;;;;;;17.60;11.73;;;4.70;99.90;;;;;;5032220;28;20455;-72
2021/12/06 09:53:46;;;;;;;17.40;10.20;;;4.80;99.90;;;;;;5030155;28;20535;-72
2021/12/06 09:56:16;;;;;;;17.27;9.53;;;4.80;99.90;;;;;;5030720;28;20467;-73
2021/12/06 09:58:43;;;;;;;14.73;8.20;;;4.90;99.90;;;;;;5049177;28;20560;-72
2021/12/06 10:01:22;;;;;;;13.70;8.50;;;5.00;99.90;;;;;;5048567;28;20458;-72
2021/12/06 10:03:50;;;;;;;13.80;8.00;;;5.00;99.90;;;;;;5030421;28;20517;-72
2021/12/06 10:06:19;;;;;;;13.63;7.80;;;5.10;99.90;;;;;;5047612;28;20477;-72
2021/12/06 10:08:49;;;;;;;18.63;8.10;;;5.20;99.90;;;;;;5047603;28;20492;-72
2021/12/06 10:11:16;;;;;;;11.47;8.47;;;5.20;99.90;;;;;;5032055;28;20454;-74
2021/12/06 10:13:43;;;;;;;13.63;8.53;;;5.30;99.90;;;;;;5030736;28;20535;-72
2021/12/06 10:16:10;;;;;;;15.33;9.73;;;5.30;99.90;;;;;;5046836;28;20466;-72
2021/12/06 10:18:37;;;;;;;14.20;8.80;;;5.40;99.90;;;;;;5030960;28;20477;-71
2021/12/06 10:21:04;;;;;;;30.37;19.90;;;5.40;99.90;;;;;;5047926;28;20477;-73
2021/12/06 10:23:30;;;;;;;40.90;25.30;;;5.40;99.90;;;;;;5048973;28;20820;-71
2021/12/06 10:25:56;;;;;;;23.90;17.50;;;5.40;99.90;;;;;;5047885;28;20986;-72
2021/12/06 10:28:27;;;;;;;17.73;12.97;;;5.40;99.90;;;;;;5047404;28;20520;-74
2021/12/06 10:30:58;;;;;;;14.70;10.00;;;5.40;99.90;;;;;;5047157;28;20828;-71
2021/12/06 10:33:27;;;;;;;13.37;9.10;;;5.40;99.90;;;;;;5047502;28;20531;-72
2021/12/06 10:35:57;;;;;;;12.20;8.73;;;5.50;99.90;;;;;;5030350;28;20458;-71
2021/12/06 10:38:33;;;;;;;13.40;7.80;;;5.60;99.90;;;;;;5030065;28;20465;-74
2021/12/06 10:41:02;;;;;;;12.00;7.53;;;5.70;99.90;;;;;;5048292;28;20542;-72
2021/12/06 10:43:28;;;;;;;12.33;7.80;;;5.80;99.90;;;;;;5036114;28;21043;-72
2021/12/06 10:45:56;;;;;;;12.27;8.00;;;5.80;99.90;;;;;;5047342;28;20467;-74
2021/12/06 10:48:26;;;;;;;10.40;7.77;;;5.90;99.90;;;;;;5048675;28;20251;-75
2021/12/06 10:50:51;;;;;;;12.93;7.73;;;5.90;99.90;;;;;;5049202;28;20469;-73
2021/12/06 10:53:38;;;;;;;9.50;6.43;;;5.80;99.90;;;;;;5047089;28;20974;-71
2021/12/06 10:56:14;;;;;;;10.00;6.50;;;5.90;99.90;;;;;;5046509;28;20250;-75
2021/12/06 10:58:40;;;;;;;12.17;7.07;;;6.00;99.90;;;;;;5048265;28;20457;-71
2021/12/06 11:01:08;;;;;;;9.97;7.53;;;6.10;99.90;;;;;;5046659;28;20454;-71
2021/12/06 11:03:41;;;;;;;12.90;8.43;;;6.10;99.90;;;;;;5039089;28;20990;-71
2021/12/06 11:06:12;;;;;;;7.93;5.90;;;6.10;99.90;;;;;;5031071;28;20466;-70
2021/12/06 11:08:40;;;;;;;12.10;7.60;;;6.20;99.90;;;;;;5043787;28;20469;-76
2021/12/06 11:11:09;;;;;;;13.27;7.27;;;6.30;99.90;;;;;;5044101;28;20464;-72
2021/12/06 11:13:39;;;;;;;16.27;7.70;;;6.30;99.90;;;;;;5046262;28;20443;-72
2021/12/06 11:16:24;;;;;;;12.37;6.80;;;6.30;99.90;;;;;;5044655;28;20477;-74
2021/12/06 11:18:54;;;;;;;15.13;8.57;;;6.30;99.90;;;;;;5042764;28;20454;-70
2021/12/06 11:21:51;;;;;;;13.30;7.57;;;6.30;99.90;;;;;;5046167;28;20528;-71
2021/12/06 11:24:26;;;;;;;10.30;6.73;;;6.20;99.90;;;;;;5027162;28;20446;-74
2021/12/06 11:26:53;;;;;;;12.63;7.23;;;6.30;99.90;;;;;;5046781;28;20954;-72
2021/12/06 11:29:21;;;;;;;8.70;6.60;;;6.40;99.90;;;;;;5028695;28;20497;-73
2021/12/06 11:31:57;;;;;;;12.37;7.40;;;6.50;99.90;;;;;;5029849;28;20446;-74
2021/12/06 11:34:49;;;;;;;13.97;8.40;;;6.50;99.90;;;;;;5043614;28;20462;-71
2021/12/06 11:37:23;;;;;;;12.37;8.63;;;6.60;99.90;;;;;;5043851;28;20468;-72
2021/12/06 11:40:00;;;;;;;11.50;8.00;;;6.50;99.90;;;;;;5042815;28;20535;-72
2021/12/06 11:42:26;;;;;;;13.07;7.67;;;6.50;99.90;;;;;;5047441;28;20465;-75
2021/12/06 11:44:52;;;;;;;14.50;9.40;;;6.50;99.90;;;;;;5046934;28;20452;-72
2021/12/06 11:47:19;;;;;;;18.37;8.20;;;6.40;99.90;;;;;;5046462;28;20220;-72
2021/12/06 11:49:46;;;;;;;13.33;7.50;;;6.40;99.90;;;;;;5049361;28;20219;-73
2021/12/06 11:52:16;;;;;;;18.50;10.70;;;6.40;99.90;;;;;;5049923;28;20469;-73
2021/12/06 11:55:08;;;;;;;16.43;8.67;;;6.30;99.90;;;;;;5049333;28;20451;-74
2021/12/06 11:57:39;;;;;;;12.67;8.67;;;6.30;99.90;;;;;;5042271;28;20466;-72
2021/12/06 12:00:16;;;;;;;20.40;12.17;;;6.30;99.90;;;;;;5033054;28;20512;-74
2021/12/06 12:02:56;;;;;;;25.43;13.80;;;6.30;99.90;;;;;;5049267;28;20513;-73
2021/12/06 12:05:28;;;;;;;45.80;22.80;;;6.30;99.90;;;;;;5032646;28;20489;-73
2021/12/06 12:08:08;;;;;;;67.97;31.10;;;6.30;99.90;;;;;;5046866;28;20462;-72
2021/12/06 12:10:36;;;;;;;71.60;31.33;;;6.40;99.90;;;;;;5029117;28;20574;-75
2021/12/06 12:13:04;;;;;;;72.17;28.33;;;6.20;99.90;;;;;;5042403;28;20450;-72
2021/12/06 12:15:30;;;;;;;73.60;32.47;;;6.10;99.90;;;;;;5032323;28;20451;-71
2021/12/06 12:17:56;;;;;;;55.80;29.07;;;6.10;99.90;;;;;;5033010;28;20453;-73
2021/12/06 12:20:23;;;;;;;50.77;25.87;;;6.10;99.90;;;;;;5050014;28;20230;-72
2021/12/06 12:22:51;;;;;;;62.40;34.37;;;6.10;99.90;;;;;;5050516;28;20623;-72
2021/12/06 12:25:32;;;;;;;142.80;65.10;;;6.20;99.90;;;;;;5049256;28;20470;-73
2021/12/06 12:30:40;;;;;;;65.37;32.77;;;6.10;99.90;;;;;;5048322;28;21019;-75
2021/12/06 12:33:08;;;;;;;35.60;21.30;;;6.10;99.90;;;;;;5048536;28;20462;-71
2021/12/06 12:35:38;;;;;;;45.30;22.30;;;6.10;99.90;;;;;;5048486;28;20490;-73
2021/12/06 12:38:04;;;;;;;30.80;15.80;;;6.20;99.90;;;;;;5047558;28;20466;-72
2021/12/06 12:40:46;;;;;;;26.87;16.00;;;6.20;99.90;;;;;;5048157;28;20457;-73
2021/12/06 12:43:35;;;;;;;18.43;12.47;;;6.10;99.90;;;;;;5048848;28;20488;-74
2021/12/06 12:46:12;;;;;;;16.63;9.70;;;6.10;99.90;;;;;;5046873;28;20458;-75
2021/12/06 12:48:47;;;;;;;16.53;10.33;;;6.20;99.90;;;;;;5050331;28;21213;-71
2021/12/06 12:51:20;;;;;;;17.97;10.20;;;6.20;99.90;;;;;;5048300;28;20446;-72
2021/12/06 12:53:49;;;;;;;13.57;9.70;;;6.10;99.90;;;;;;5046027;28;20511;-73
2021/12/06 12:56:21;;;;;;;13.97;10.20;;;6.10;99.90;;;;;;5047651;28;20462;-74
2021/12/06 12:58:47;;;;;;;13.00;8.60;;;6.10;99.90;;;;;;5050712;28;20538;-74
2021/12/06 13:01:14;;;;;;;10.17;6.77;;;6.20;99.90;;;;;;5048767;28;20446;-75
2021/12/06 13:03:51;;;;;;;8.20;6.30;;;6.30;99.90;;;;;;5044268;28;20454;-71
2021/12/06 13:06:33;;;;;;;7.40;5.10;;;6.30;99.90;;;;;;5048486;28;20464;-73